Terminal Aerodrome Forecast
Issued by NWS

Home | Current Version | Previous Version | Text Only | Print | Product List | Glossary On
Versions: 1 2 3 4 5 6 7 8 9 10 11 12 13 14 15 16 17 18 19 20 21 22 23 24 25
000
FTUS44 KOUN 011726
TAFPNC
TAF
KPNC 011726Z 0118/0218 12016G24KT P6SM BKN040
     FM012300 10008KT P6SM VCTS BKN050CB
      TEMPO 0123/0203 VRB30G45KT 2SM TSRA BKN040CB OVC100
     FM020300 07012KT P6SM VCTS SCT050CB BKN200
     FM020900 09008KT 3SM -TSRA BKN025CB OVC100=

USA.gov is the U.S. government's official web portal to all federal, state and local government web resources and services.